Observation data for Tarzan on 11/17/2019      Previous  Date       Current Mesonet Observations  Soil Data  Daily Summary Page  Observations in Plain Language
KTA1 171405Z 34010KT 09/02 ANAN RMK A01 T00900024  RH  063%=      5-min Rain = 0
KTA1 171409Z 35011KT 08/01 ANAN RMK A01 T00770011  RH  063%=      5-min Rain = 0
KTA1 171412Z 35012KT 08/01 ANAN RMK A01 T00780011  RH  063%=      5-min Rain = 0
KTA1 171414Z 35013KT 08/01 ANAN RMK A01 T00790010  RH  062%=      5-min Rain = 0
KTA1 171415Z 36012KT 08/01 ANAN RMK A01 T00790010  RH  062%=      5-min Rain = 0
KTA1 171416Z 35009KT 08/01 A3013 RMK A01 T00790010  RH  062%=      5-min Rain = 0
KTA1 171417Z 36012KT 08/01 A3013 RMK A01 T00800011  RH  062%=      5-min Rain = 0
KTA1 171418Z 36011KT 08/01 A3013 RMK A01 T00800011  RH  062%=      5-min Rain = 0
KTA1 171419Z 00012KT 08/01 A3013 RMK A01 T00800010  RH  061%=      5-min Rain = 0
KTA1 171420Z 36013KT 08/01 A3013 RMK A01 T00810010  RH  061%=      5-min Rain = 0
KTA1 171421Z 00013KT 08/01 A3013 RMK A01 T00810010  RH  061%=      5-min Rain = 0
KTA1 171422Z 00013KT 08/01 A3013 RMK A01 T00810010  RH  060%=      5-min Rain = 0
KTA1 171423Z 36012KT 08/01 A3013 RMK A01 T00820010  RH  060%=      5-min Rain = 0
KTA1 171424Z 00014KT 08/01 A3013 RMK A01 T00820010  RH  060%=      5-min Rain = 0
KTA1 171425Z 36015KT 08/01 A3013 RMK A01 T00830009  RH  060%=      5-min Rain = 0
KTA1 171426Z 00015KT 08/01 A3013 RMK A01 T00830009  RH  060%=      5-min Rain = 0
KTA1 171427Z 36014KT 08/01 A3013 RMK A01 T00840009  RH  059%=      5-min Rain = 0
KTA1 171428Z 01013KT 08/01 A3014 RMK A01 T00840009  RH  059%=      5-min Rain = 0
KTA1 171429Z 36013KT 08/01 A3014 RMK A01 T00840009  RH  059%=      5-min Rain = 0
KTA1 171430Z 00016KT 09/01 A3013 RMK A01 T00850009  RH  059%=      5-min Rain = 0
KTA1 171431Z 01014KT 09/01 A3013 RMK A01 T00850009  RH  059%=      5-min Rain = 0
KTA1 171432Z 00013KT 09/01 A3013 RMK A01 T00860009  RH  059%=      5-min Rain = 0
KTA1 171433Z 01012KT 09/01 A3014 RMK A01 T00860010  RH  059%=      5-min Rain = 0
KTA1 171434Z 00014KT 09/01 A3014 RMK A01 T00860010  RH  059%=      5-min Rain = 0
KTA1 171435Z 00016KT 09/01 A3014 RMK A01 T00860009  RH  058%=      5-min Rain = 0
KTA1 171436Z 00014KT 09/01 A3014 RMK A01 T00870009  RH  058%=      5-min Rain = 0
KTA1 171437Z 00012KT 09/01 A3014 RMK A01 T00870009  RH  058%=      5-min Rain = 0
KTA1 171438Z 00014KT 09/01 A3014 RMK A01 T00880010  RH  058%=      5-min Rain = 0
KTA1 171439Z 00012KT 09/01 A3014 RMK A01 T00880010  RH  058%=      5-min Rain = 0
KTA1 171440Z 00013KT 09/01 A3014 RMK A01 T00880010  RH  058%=      5-min Rain = 0
KTA1 171441Z 00014KT 09/01 A3014 RMK A01 T00890010  RH  058%=      5-min Rain = 0
KTA1 171442Z 01013KT 09/01 A3014 RMK A01 T00890010  RH  058%=      5-min Rain = 0
KTA1 171443Z 01013KT 09/01 A3014 RMK A01 T00890010  RH  057%=      5-min Rain = 0
KTA1 171444Z 00015KT 09/01 A3014 RMK A01 T00900010  RH  057%=      5-min Rain = 0
KTA1 171445Z 00013G18KT 09/01 A3014 RMK A01 T00900010  RH  057%=      5-min Rain = 0
KTA1 171446Z 01014KT 09/01 A3014 RMK A01 T00900010  RH  057%=      5-min Rain = 0
KTA1 171447Z 00014KT 09/01 A3014 RMK A01 T00910010  RH  057%=      5-min Rain = 0
KTA1 171448Z 00014KT 09/01 A3014 RMK A01 T00910010  RH  057%=      5-min Rain = 0
KTA1 171449Z 00014KT 09/01 A3014 RMK A01 T00920010  RH  057%=      5-min Rain = 0
KTA1 171450Z 36016KT 09/01 A3014 RMK A01 T00920010  RH  056%=      5-min Rain = 0
KTA1 171451Z 36016KT 09/01 A3014 RMK A01 T00920010  RH  056%=      5-min Rain = 0
KTA1 171452Z 36017KT 09/01 A3014 RMK A01 T00930010  RH  056%=      5-min Rain = 0
KTA1 171453Z 00015G20KT 09/01 A3014 RMK A01 T00930009  RH  056%=      5-min Rain = 0
KTA1 171454Z 00018KT 09/01 A3014 RMK A01 T00930009  RH  056%=      5-min Rain = 0
KTA1 171455Z 01019KT 09/01 A3014 RMK A01 T00940009  RH  056%=      5-min Rain = 0
KTA1 171456Z 00017KT 09/01 A3014 RMK A01 T00940009  RH  055%=      5-min Rain = 0
KTA1 171457Z 00016KT 09/01 A3014 RMK A01 T00940010  RH  056%=      5-min Rain = 0
KTA1 171458Z 00017KT 10/01 A3014 RMK A01 T00950009  RH  055%=      5-min Rain = 0
KTA1 171459Z 01016KT 10/01 A3014 RMK A01 T00950010  RH  055%=      5-min Rain = 0
KTA1 171500Z 01015G20KT 10/01 A3014 RMK A01 T00960010  RH  055%=      5-min Rain = 0
KTA1 171501Z 01014KT 10/01 A3014 RMK A01 T00970011  RH  055%=      5-min Rain = 0
KTA1 171502Z 01014KT 10/01 A3015 RMK A01 T00970012  RH  055%=      5-min Rain = 0
KTA1 171503Z 01017KT 10/01 A3014 RMK A01 T00980011  RH  055%=      5-min Rain = 0
KTA1 171504Z 01015KT 10/01 A3015 RMK A01 T00980010  RH  054%=      5-min Rain = 0
KTA1 171505Z 01013G18KT 10/01 A3015 RMK A01 T00980012  RH  055%=      5-min Rain = 0
KTA1 171506Z 01013G18KT 10/01 A3014 RMK A01 T00990012  RH  055%=      5-min Rain = 0
KTA1 171507Z 01014KT 10/01 A3014 RMK A01 T00990012  RH  055%=      5-min Rain = 0
KTA1 171508Z 01013KT 10/01 A3015 RMK A01 T00990012  RH  055%=      5-min Rain = 0
KTA1 171509Z 36014KT 10/01 A3014 RMK A01 T01000012  RH  054%=      5-min Rain = 0
KTA1 171510Z 01019KT 10/01 A3015 RMK A01 T01000011  RH  054%=      5-min Rain = 0
KTA1 171511Z 00014KT 10/01 A3015 RMK A01 T00990010  RH  054%=      5-min Rain = 0
KTA1 171512Z 00016G21KT 10/01 A3015 RMK A01 T00990011  RH  054%=      5-min Rain = 0
KTA1 171513Z 01015KT 10/01 A3015 RMK A01 T00990010  RH  054%=      5-min Rain = 0
KTA1 171514Z 01018KT 10/01 A3015 RMK A01 T01000011  RH  054%=      5-min Rain = 0
KTA1 171515Z 01018KT 10/01 A3015 RMK A01 T00990010  RH  054%=      5-min Rain = 0
KTA1 171516Z 01017G22KT 10/01 A3015 RMK A01 T01000010  RH  054%=      5-min Rain = 0
KTA1 171517Z 01018KT 10/01 A3015 RMK A01 T01000010  RH  054%=      5-min Rain = 0
KTA1 171518Z 01020KT 10/01 A3015 RMK A01 T01000010  RH  054%=      5-min Rain = 0
KTA1 171519Z 01018KT 10/01 A3015 RMK A01 T01000010  RH  053%=      5-min Rain = 0
KTA1 171520Z 01014KT 10/01 A3015 RMK A01 T01000011  RH  054%=      5-min Rain = 0
KTA1 171521Z 00018KT 10/01 A3015 RMK A01 T01020013  RH  054%=      5-min Rain = 0
KTA1 171522Z 01016G21KT 10/01 A3015 RMK A01 T01030011  RH  053%=      5-min Rain = 0
KTA1 171523Z 00019KT 10/01 A3015 RMK A01 T01030011  RH  053%=      5-min Rain = 0
KTA1 171524Z 01021KT 10/01 A3015 RMK A01 T01030011  RH  053%=      5-min Rain = 0
KTA1 171525Z 01020KT 10/01 A3015 RMK A01 T01020010  RH  053%=      5-min Rain = 0
KTA1 171526Z 01018G23KT 10/01 A3015 RMK A01 T01020010  RH  053%=      5-min Rain = 0
KTA1 171527Z 01017KT 10/01 A3015 RMK A01 T01020011  RH  053%=      5-min Rain = 0
KTA1 171528Z 01020KT 10/01 A3015 RMK A01 T01020011  RH  053%=      5-min Rain = 0
KTA1 171529Z 36019G24KT 10/01 A3015 RMK A01 T01030011  RH  053%=      5-min Rain = 0
KTA1 171530Z 01019KT 10/01 A3015 RMK A01 T01030012  RH  053%=      5-min Rain = 0
KTA1 171531Z 00022KT 10/01 A3015 RMK A01 T01040011  RH  053%=      5-min Rain = 0
KTA1 171532Z 01021KT 10/01 A3015 RMK A01 T01040011  RH  053%=      5-min Rain = 0
KTA1 171533Z 01022KT 10/01 A3015 RMK A01 T01040012  RH  053%=      5-min Rain = 0
KTA1 171534Z 01022KT 10/01 A3015 RMK A01 T01040011  RH  053%=      5-min Rain = 0
KTA1 171535Z 01019KT 10/01 A3015 RMK A01 T01040012  RH  053%=      5-min Rain = 0
KTA1 171536Z 01019KT 10/01 A3015 RMK A01 T01040012  RH  053%=      5-min Rain = 0
KTA1 171537Z 01020KT 11/01 A3015 RMK A01 T01050012  RH  053%=      5-min Rain = 0
KTA1 171538Z 01020KT 11/01 A3015 RMK A01 T01050012  RH  052%=      5-min Rain = 0
KTA1 171539Z 01020KT 11/01 A3015 RMK A01 T01060012  RH  052%=      5-min Rain = 0
KTA1 171540Z 01015KT 11/01 A3015 RMK A01 T01060013  RH  052%=      5-min Rain = 0
KTA1 171541Z 01019KT 11/01 A3015 RMK A01 T01080014  RH  052%=      5-min Rain = 0
KTA1 171542Z 01019KT 11/01 A3015 RMK A01 T01080013  RH  052%=      5-min Rain = 0
KTA1 171543Z 01015KT 11/01 A3015 RMK A01 T01080014  RH  052%=      5-min Rain = 0
KTA1 171544Z 01016KT 11/02 A3015 RMK A01 T01100015  RH  052%=      5-min Rain = 0
KTA1 171545Z 01016KT 11/02 A3015 RMK A01 T01110015  RH  052%=      5-min Rain = 0
KTA1 171546Z 01016G21KT 11/01 A3015 RMK A01 T01110014  RH  051%=      5-min Rain = 0
KTA1 171547Z 01020KT 11/01 A3015 RMK A01 T01110014  RH  051%=      5-min Rain = 0
KTA1 171548Z 02019KT 11/01 A3015 RMK A01 T01100012  RH  051%=      5-min Rain = 0
KTA1 171549Z 01018KT 11/01 A3016 RMK A01 T01080013  RH  052%=      5-min Rain = 0
KTA1 171550Z 01017KT 11/01 A3016 RMK A01 T01090013  RH  052%=      5-min Rain = 0
KTA1 171551Z 01017KT 11/01 A3016 RMK A01 T01100014  RH  052%=      5-min Rain = 0
KTA1 171552Z 01017KT 11/01 A3016 RMK A01 T01110014  RH  051%=      5-min Rain = 0
KTA1 171553Z 02019KT 11/01 A3016 RMK A01 T01120014  RH  051%=      5-min Rain = 0
KTA1 171554Z 01020KT 11/01 A3016 RMK A01 T01110013  RH  051%=      5-min Rain = 0
KTA1 171555Z 01018KT 11/01 A3016 RMK A01 T01110014  RH  051%=      5-min Rain = 0
KTA1 171556Z 02016KT 11/01 A3016 RMK A01 T01110014  RH  051%=      5-min Rain = 0
KTA1 171557Z 01020KT 11/01 A3016 RMK A01 T01120014  RH  051%=      5-min Rain = 0
KTA1 171558Z 01021KT 11/01 A3016 RMK A01 T01110013  RH  051%=      5-min Rain = 0
KTA1 171559Z 01021KT 11/01 A3016 RMK A01 T01110013  RH  051%=      5-min Rain = 0
KTA1 171600Z 00019KT 11/01 A3016 RMK A01 T01110013  RH  051%=      5-min Rain = 0
KTA1 171601Z 01020G25KT 11/01 A3016 RMK A01 T01120014  RH  051%=      5-min Rain = 0
KTA1 171602Z 00019KT 11/01 A3016 RMK A01 T01120014  RH  051%=      5-min Rain = 0
KTA1 171603Z 00017KT 11/01 A3016 RMK A01 T01120014  RH  051%=      5-min Rain = 0
KTA1 171604Z 01016KT 11/02 A3016 RMK A01 T01140016  RH  051%=      5-min Rain = 0
KTA1 171605Z 01018G23KT 12/02 A3016 RMK A01 T01150015  RH  050%=      5-min Rain = 0
KTA1 171606Z 00020KT 12/02 A3016 RMK A01 T01150015  RH  050%=      5-min Rain = 0
KTA1 171607Z 00018KT 11/01 A3016 RMK A01 T01140014  RH  050%=      5-min Rain = 0
KTA1 171608Z 00017KT 11/02 A3016 RMK A01 T01140015  RH  051%=      5-min Rain = 0
KTA1 171609Z 00018KT 12/02 A3016 RMK A01 T01150015  RH  050%=      5-min Rain = 0
KTA1 171610Z 01017KT 12/02 A3016 RMK A01 T01160016  RH  050%=      5-min Rain = 0
KTA1 171611Z 01017KT 12/02 A3016 RMK A01 T01170016  RH  050%=      5-min Rain = 0
KTA1 171612Z 01016KT 12/02 A3016 RMK A01 T01170015  RH  050%=      5-min Rain = 0
KTA1 171613Z 02019KT 12/02 A3016 RMK A01 T01170016  RH  050%=      5-min Rain = 0
KTA1 171614Z 01018KT 12/02 A3016 RMK A01 T01170015  RH  050%=      5-min Rain = 0
KTA1 171615Z 01015KT 12/02 A3016 RMK A01 T01160015  RH  050%=      5-min Rain = 0
KTA1 171616Z 01018KT 12/02 A3016 RMK A01 T01180017  RH  050%=      5-min Rain = 0
KTA1 171617Z 00017KT 12/02 A3016 RMK A01 T01190016  RH  049%=      5-min Rain = 0
KTA1 171618Z 01015KT 12/02 A3016 RMK A01 T01190017  RH  050%=      5-min Rain = 0
KTA1 171619Z 01018KT 12/02 A3016 RMK A01 T01210017  RH  049%=      5-min Rain = 0
KTA1 171620Z 01016KT 12/02 A3016 RMK A01 T01210017  RH  049%=      5-min Rain = 0
KTA1 171621Z 01015G22KT 12/02 A3016 RMK A01 T01210018  RH  049%=      5-min Rain = 0
KTA1 171622Z 01019KT 12/02 A3016 RMK A01 T01220017  RH  048%=      5-min Rain = 0
KTA1 171623Z 01017KT 12/02 A3016 RMK A01 T01200015  RH  049%=      5-min Rain = 0
KTA1 171624Z 01014KT 12/02 A3016 RMK A01 T01200016  RH  049%=      5-min Rain = 0
KTA1 171625Z 01018KT 12/02 A3016 RMK A01 T01210017  RH  049%=      5-min Rain = 0
KTA1 171626Z 01017KT 12/02 A3016 RMK A01 T01200016  RH  049%=      5-min Rain = 0
KTA1 171627Z 01017KT 12/02 A3016 RMK A01 T01200016  RH  049%=      5-min Rain = 0
KTA1 171628Z 00017KT 12/02 A3016 RMK A01 T01210017  RH  049%=      5-min Rain = 0
KTA1 171629Z 00018KT 12/02 A3016 RMK A01 T01220016  RH  048%=      5-min Rain = 0
KTA1 171630Z 01019KT 12/02 A3017 RMK A01 T01220016  RH  048%=      5-min Rain = 0
KTA1 171631Z 01018KT 12/02 A3017 RMK A01 T01220016  RH  048%=      5-min Rain = 0
KTA1 171632Z 01017KT 12/02 A3017 RMK A01 T01210016  RH  049%=      5-min Rain = 0
KTA1 171633Z 02014KT 12/02 A3017 RMK A01 T01220017  RH  049%=      5-min Rain = 0
KTA1 171634Z 36018KT 13/02 A3017 RMK A01 T01250019  RH  048%=      5-min Rain = 0
KTA1 171635Z 02018KT 13/02 A3017 RMK A01 T01250017  RH  048%=      5-min Rain = 0
KTA1 171636Z 02017KT 13/02 A3017 RMK A01 T01250016  RH  048%=      5-min Rain = 0
KTA1 171637Z 02017KT 12/02 A3017 RMK A01 T01240017  RH  048%=      5-min Rain = 0
KTA1 171638Z 01016KT 12/02 A3017 RMK A01 T01240017  RH  048%=      5-min Rain = 0
KTA1 171639Z 01015KT 13/02 A3017 RMK A01 T01250017  RH  048%=      5-min Rain = 0
KTA1 171640Z 01019KT 13/02 A3017 RMK A01 T01250016  RH  048%=      5-min Rain = 0
KTA1 171641Z 01018KT 13/02 A3017 RMK A01 T01250017  RH  048%=      5-min Rain = 0
KTA1 171642Z 00016KT 13/02 A3017 RMK A01 T01250017  RH  048%=      5-min Rain = 0
KTA1 171643Z 01018KT 13/02 A3017 RMK A01 T01250017  RH  048%=      5-min Rain = 0
KTA1 171644Z 01018KT 13/02 A3017 RMK A01 T01250017  RH  048%=      5-min Rain = 0
KTA1 171645Z 01016KT 13/02 A3017 RMK A01 T01250017  RH  048%=      5-min Rain = 0
KTA1 171646Z 01012KT 13/02 A3017 RMK A01 T01260019  RH  048%=      5-min Rain = 0
KTA1 171647Z 02015KT 13/02 A3017 RMK A01 T01290019  RH  047%=      5-min Rain = 0
KTA1 171648Z 36015KT 13/02 A3017 RMK A01 T01300020  RH  047%=      5-min Rain = 0
KTA1 171649Z 36017KT 13/02 A3017 RMK A01 T01310019  RH  046%=      5-min Rain = 0
KTA1 171650Z 00017KT 13/02 A3017 RMK A01 T01290018  RH  047%=      5-min Rain = 0
KTA1 171651Z 00017KT 13/02 A3017 RMK A01 T01290019  RH  047%=      5-min Rain = 0
KTA1 171652Z 36016KT 13/02 A3017 RMK A01 T01290018  RH  047%=      5-min Rain = 0
KTA1 171653Z 00019KT 13/02 A3017 RMK A01 T01280018  RH  047%=      5-min Rain = 0
KTA1 171654Z 01018KT 13/02 A3017 RMK A01 T01270016  RH  047%=      5-min Rain = 0
KTA1 171655Z 01018KT 13/02 A3017 RMK A01 T01270016  RH  047%=      5-min Rain = 0
KTA1 171656Z 01017KT 13/02 A3017 RMK A01 T01280017  RH  047%=      5-min Rain = 0
KTA1 171657Z 02017KT 13/02 A3017 RMK A01 T01290017  RH  047%=      5-min Rain = 0
KTA1 171658Z 02019KT 13/02 A3017 RMK A01 T01290018  RH  047%=      5-min Rain = 0
KTA1 171659Z 02017KT 13/02 A3017 RMK A01 T01300018  RH  047%=      5-min Rain = 0
KTA1 171700Z 02019KT 13/02 A3017 RMK A01 T01310018  RH  046%=      5-min Rain = 0
KTA1 171701Z 01019KT 13/02 A3017 RMK A01 T01310017  RH  046%=      5-min Rain = 0
KTA1 171702Z 01020KT 13/02 A3017 RMK A01 T01300016  RH  046%=      5-min Rain = 0
KTA1 171703Z 01017KT 13/02 A3017 RMK A01 T01290016  RH  046%=      5-min Rain = 0
KTA1 171704Z 02017G22KT 13/02 A3017 RMK A01 T01290016  RH  046%=      5-min Rain = 0
KTA1 171705Z 01016G21KT 13/02 A3017 RMK A01 T01300017  RH  046%=      5-min Rain = 0
KTA1 171706Z 01019KT 13/02 A3017 RMK A01 T01310017  RH  046%=      5-min Rain = 0
KTA1 171707Z 02016KT 13/02 A3018 RMK A01 T01310017  RH  046%=      5-min Rain = 0
KTA1 171708Z 01016KT 13/02 A3018 RMK A01 T01320017  RH  046%=      5-min Rain = 0
KTA1 171709Z 01016G21KT 13/02 A3017 RMK A01 T01330018  RH  045%=      5-min Rain = 0
KTA1 171710Z 01017KT 13/02 A3017 RMK A01 T01340018  RH  045%=      5-min Rain = 0
KTA1 171711Z 02018KT 13/02 A3017 RMK A01 T01340018  RH  045%=      5-min Rain = 0
KTA1 171712Z 02017KT 13/02 A3017 RMK A01 T01330017  RH  045%=      5-min Rain = 0
KTA1 171713Z 01017G22KT 13/02 A3017 RMK A01 T01330018  RH  045%=      5-min Rain = 0
KTA1 171714Z 01017KT 13/02 A3017 RMK A01 T01340018  RH  045%=      5-min Rain = 0
KTA1 171715Z 01015KT 13/02 A3018 RMK A01 T01330018  RH  046%=      5-min Rain = 0
KTA1 171716Z 01016KT 13/02 A3018 RMK A01 T01330018  RH  046%=      5-min Rain = 0
KTA1 171717Z 01016KT 13/02 A3018 RMK A01 T01340018  RH  045%=      5-min Rain = 0
KTA1 171718Z 00015KT 13/02 A3017 RMK A01 T01330017  RH  045%=      5-min Rain = 0
KTA1 171719Z 01016KT 13/02 A3017 RMK A01 T01330019  RH  046%=      5-min Rain = 0
KTA1 171720Z 00017KT 13/02 A3017 RMK A01 T01340018  RH  045%=      5-min Rain = 0
KTA1 171721Z 01015KT 13/02 A3017 RMK A01 T01330018  RH  046%=      5-min Rain = 0
KTA1 171722Z 01013KT 13/02 A3017 RMK A01 T01330019  RH  046%=      5-min Rain = 0
KTA1 171723Z 01013KT 13/02 A3017 RMK A01 T01330019  RH  046%=      5-min Rain = 0
KTA1 171724Z 01015KT 14/02 A3017 RMK A01 T01350021  RH  046%=      5-min Rain = 0
KTA1 171725Z 00013KT 14/02 A3017 RMK A01 T01360020  RH  045%=      5-min Rain = 0
KTA1 171726Z 00015G21KT 14/02 A3017 RMK A01 T01360021  RH  046%=      5-min Rain = 0
KTA1 171727Z 01019KT 14/02 A3018 RMK A01 T01370019  RH  045%=      5-min Rain = 0
KTA1 171728Z 01017KT 14/02 A3018 RMK A01 T01360019  RH  045%=      5-min Rain = 0
KTA1 171729Z 02014KT 14/02 A3018 RMK A01 T01360019  RH  045%=      5-min Rain = 0
KTA1 171730Z 02016KT 14/02 A3018 RMK A01 T01360020  RH  045%=      5-min Rain = 0
KTA1 171731Z 02017KT 14/02 A3017 RMK A01 T01370018  RH  045%=      5-min Rain = 0
KTA1 171732Z 02018KT 14/02 A3017 RMK A01 T01370017  RH  044%=      5-min Rain = 0
KTA1 171733Z 02017KT 14/02 A3017 RMK A01 T01370019  RH  045%=      5-min Rain = 0
KTA1 171734Z 02014KT 14/02 A3017 RMK A01 T01370019  RH  045%=      5-min Rain = 0
KTA1 171735Z 01013KT 14/02 A3017 RMK A01 T01370019  RH  045%=      5-min Rain = 0
KTA1 171736Z 01011KT 14/02 A3017 RMK A01 T01370021  RH  045%=      5-min Rain = 0
KTA1 171737Z 02013KT 14/02 A3017 RMK A01 T01390022  RH  045%=      5-min Rain = 0
KTA1 171738Z 03014KT 14/02 A3017 RMK A01 T01410021  RH  044%=      5-min Rain = 0
KTA1 171739Z 01012KT 14/02 A3017 RMK A01 T01420021  RH  044%=      5-min Rain = 0
KTA1 171740Z 36014KT 14/02 A3017 RMK A01 T01440022  RH  044%=      5-min Rain = 0
KTA1 171741Z 01015KT 14/02 A3017 RMK A01 T01430021  RH  044%=      5-min Rain = 0
KTA1 171742Z 02013KT 14/02 A3017 RMK A01 T01430021  RH  044%=      5-min Rain = 0
KTA1 171743Z 02012KT 14/02 A3017 RMK A01 T01410020  RH  044%=      5-min Rain = 0
KTA1 171744Z 01016KT 14/02 A3017 RMK A01 T01390020  RH  044%=      5-min Rain = 0
KTA1 171745Z 02013KT 14/02 A3017 RMK A01 T01390019  RH  044%=      5-min Rain = 0
KTA1 171746Z 01011KT 14/02 A3017 RMK A01 T01400021  RH  045%=      5-min Rain = 0
KTA1 171747Z 01012KT 14/02 A3017 RMK A01 T01410021  RH  044%=      5-min Rain = 0
KTA1 171748Z 01011KT 14/02 A3017 RMK A01 T01420021  RH  044%=      5-min Rain = 0
KTA1 171749Z 02013KT 14/02 A3017 RMK A01 T01440021  RH  043%=      5-min Rain = 0
KTA1 171750Z 02014KT 15/02 A3017 RMK A01 T01450020  RH  043%=      5-min Rain = 0
KTA1 171751Z 01015KT 14/02 A3017 RMK A01 T01440019  RH  043%=      5-min Rain = 0
KTA1 171752Z 02016KT 14/02 A3017 RMK A01 T01430019  RH  043%=      5-min Rain = 0
KTA1 171753Z 02017KT 14/02 A3017 RMK A01 T01420019  RH  043%=      5-min Rain = 0
KTA1 171754Z 01014KT 14/02 A3017 RMK A01 T01420019  RH  043%=      5-min Rain = 0
KTA1 171755Z 02014KT 14/02 A3017 RMK A01 T01410018  RH  043%=      5-min Rain = 0
KTA1 171756Z 02015KT 14/02 A3017 RMK A01 T01410019  RH  043%=      5-min Rain = 0
KTA1 171757Z 03015KT 14/02 A3017 RMK A01 T01420019  RH  043%=      5-min Rain = 0
KTA1 171758Z 02013KT 14/02 A3017 RMK A01 T01420019  RH  043%=      5-min Rain = 0
KTA1 171759Z 02016KT 14/02 A3017 RMK A01 T01440021  RH  043%=      5-min Rain = 0
KTA1 171800Z 01014KT 15/02 A3017 RMK A01 T01450019  RH  043%=      5-min Rain = 0
KTA1 171801Z 01018KT 14/02 A3017 RMK A01 T01430019  RH  043%=      5-min Rain = 0
KTA1 171802Z 01016KT 14/02 A3017 RMK A01 T01430018  RH  043%=      5-min Rain = 0
KTA1 171803Z 01013KT 14/02 A3017 RMK A01 T01430018  RH  043%=      5-min Rain = 0
KTA1 171804Z 02009KT 14/02 A3017 RMK A01 T01440020  RH  043%=      5-min Rain = 0
KTA1 171805Z 02009KT 15/02 A3017 RMK A01 T01460020  RH  043%=      5-min Rain = 0
KTA1 171806Z 00011KT 15/02 A3017 RMK A01 T01460021  RH  043%=      5-min Rain = 0
KTA1 171807Z 00012KT 15/02 A3017 RMK A01 T01460020  RH  042%=      5-min Rain = 0
KTA1 171808Z 00012KT 15/02 A3017 RMK A01 T01460019  RH  042%=      5-min Rain = 0
KTA1 171809Z 01011KT 15/02 A3017 RMK A01 T01450019  RH  043%=      5-min Rain = 0
KTA1 171810Z 02014KT 15/02 A3017 RMK A01 T01460019  RH  042%=      5-min Rain = 0
KTA1 171811Z 02016KT 15/02 A3017 RMK A01 T01460019  RH  042%=      5-min Rain = 0
KTA1 171812Z 02014KT 15/02 A3017 RMK A01 T01450018  RH  042%=      5-min Rain = 0
KTA1 171813Z 01009KT 15/02 A3017 RMK A01 T01450018  RH  042%=      5-min Rain = 0
KTA1 171814Z 02010KT 15/02 A3017 RMK A01 T01460020  RH  042%=      5-min Rain = 0
KTA1 171815Z 02011KT 15/02 A3017 RMK A01 T01480021  RH  042%=      5-min Rain = 0
KTA1 171816Z 03013KT 15/02 A3018 RMK A01 T01490021  RH  042%=      5-min Rain = 0
KTA1 171817Z 03009KT 15/02 A3018 RMK A01 T01480018  RH  041%=      5-min Rain = 0
KTA1 171818Z 02007KT 15/02 A3018 RMK A01 T01460018  RH  042%=      5-min Rain = 0
KTA1 171819Z 02008KT 15/02 A3018 RMK A01 T01460020  RH  042%=      5-min Rain = 0
KTA1 171820Z 36008KT 15/02 A3017 RMK A01 T01480021  RH  042%=      5-min Rain = 0
KTA1 171821Z 00009KT 15/02 A3017 RMK A01 T01500023  RH  042%=      5-min Rain = 0
KTA1 171822Z 02011KT 15/02 A3017 RMK A01 T01510021  RH  041%=      5-min Rain = 0
KTA1 171823Z 02009KT 15/02 A3017 RMK A01 T01500020  RH  041%=      5-min Rain = 0
KTA1 171824Z 02007KT 15/02 A3017 RMK A01 T01480019  RH  042%=      5-min Rain = 0
KTA1 171825Z 03007KT 15/02 A3017 RMK A01 T01470019  RH  042%=      5-min Rain = 0
KTA1 171826Z 03006KT 15/02 A3017 RMK A01 T01470019  RH  042%=      5-min Rain = 0
KTA1 171827Z 02008KT 15/02 A3017 RMK A01 T01470020  RH  042%=      5-min Rain = 0
KTA1 171828Z 00010KT 15/02 A3017 RMK A01 T01480020  RH  042%=      5-min Rain = 0
KTA1 171829Z 01012KT 15/02 A3017 RMK A01 T01500020  RH  041%=      5-min Rain = 0
KTA1 171830Z 01012KT 15/02 A3017 RMK A01 T01490019  RH  041%=      5-min Rain = 0
KTA1 171831Z 01013KT 15/02 A3016 RMK A01 T01480019  RH  042%=      5-min Rain = 0
KTA1 171832Z 03012KT 15/02 A3016 RMK A01 T01480019  RH  042%=      5-min Rain = 0
KTA1 171833Z 03008KT 15/02 A3016 RMK A01 T01480020  RH  042%=      5-min Rain = 0
KTA1 171834Z 02006KT 15/02 A3016 RMK A01 T01490021  RH  042%=      5-min Rain = 0
KTA1 171835Z 01009KT 15/02 A3016 RMK A01 T01510022  RH  042%=      5-min Rain = 0
KTA1 171836Z 00011KT 15/02 A3015 RMK A01 T01520020  RH  041%=      5-min Rain = 0
KTA1 171837Z 00013KT 15/02 A3015 RMK A01 T01520020  RH  041%=      5-min Rain = 0
KTA1 171838Z 01012KT 15/02 A3015 RMK A01 T01530019  RH  040%=      5-min Rain = 0
KTA1 171839Z 02011KT 15/02 A3015 RMK A01 T01530019  RH  040%=      5-min Rain = 0
KTA1 171840Z 01012KT 15/02 A3015 RMK A01 T01530018  RH  040%=      5-min Rain = 0
KTA1 171841Z 01011KT 15/02 A3015 RMK A01 T01520018  RH  040%=      5-min Rain = 0
KTA1 171842Z 01008KT 15/02 A3015 RMK A01 T01510019  RH  041%=      5-min Rain = 0
KTA1 171843Z 01010KT 15/02 A3015 RMK A01 T01520020  RH  041%=      5-min Rain = 0
KTA1 171844Z 04012KT 15/02 A3016 RMK A01 T01540020  RH  041%=      5-min Rain = 0
KTA1 171845Z 05010KT 15/02 A3015 RMK A01 T01540019  RH  040%=      5-min Rain = 0
KTA1 171846Z 01008KT 15/02 A3015 RMK A01 T01530019  RH  040%=      5-min Rain = 0
KTA1 171847Z 01009KT 15/02 A3015 RMK A01 T01520020  RH  041%=      5-min Rain = 0
KTA1 171848Z 02012KT 15/02 A3015 RMK A01 T01530020  RH  041%=      5-min Rain = 0
KTA1 171849Z 01011KT 15/02 A3015 RMK A01 T01530020  RH  041%=      5-min Rain = 0
KTA1 171850Z 35011KT 15/02 A3015 RMK A01 T01520019  RH  041%=      5-min Rain = 0
KTA1 171851Z 02013KT 15/02 A3015 RMK A01 T01540021  RH  041%=      5-min Rain = 0
KTA1 171852Z 02010KT 16/02 A3015 RMK A01 T01550021  RH  040%=      5-min Rain = 0
KTA1 171853Z 02010G15KT 16/02 A3014 RMK A01 T01550020  RH  040%=      5-min Rain = 0
KTA1 171854Z 01015KT 16/02 A3014 RMK A01 T01550020  RH  040%=      5-min Rain = 0
KTA1 171855Z 01012KT 15/02 A3014 RMK A01 T01540019  RH  040%=      5-min Rain = 0
KTA1 171856Z 00011KT 15/02 A3014 RMK A01 T01530020  RH  041%=      5-min Rain = 0
KTA1 171857Z 02010KT 15/02 A3014 RMK A01 T01540020  RH  040%=      5-min Rain = 0
KTA1 171858Z 01011KT 16/02 A3014 RMK A01 T01550021  RH  040%=      5-min Rain = 0
KTA1 171859Z 35009KT 16/02 A3014 RMK A01 T01560020  RH  040%=      5-min Rain = 0
KTA1 171900Z 35010KT 16/02 A3014 RMK A01 T01570021  RH  040%=      5-min Rain = 0
KTA1 171901Z 35011KT 16/02 A3014 RMK A01 T01570021  RH  040%=      5-min Rain = 0
KTA1 171902Z 36010KT 16/02 A3014 RMK A01 T01580020  RH  039%=      5-min Rain = 0
KTA1 171903Z 35011KT 16/02 A3014 RMK A01 T01570020  RH  039%=      5-min Rain = 0
KTA1 171904Z 36011KT 16/02 A3014 RMK A01 T01570020  RH  040%=      5-min Rain = 0
KTA1 171905Z 02012KT 16/02 A3014 RMK A01 T01570020  RH  040%=      5-min Rain = 0
KTA1 171906Z 02010KT 16/02 A3014 RMK A01 T01570020  RH  039%=      5-min Rain = 0
KTA1 171907Z 01010KT 16/02 A3014 RMK A01 T01560021  RH  040%=      5-min Rain = 0
KTA1 171908Z 01012KT 16/02 A3014 RMK A01 T01570019  RH  039%=      5-min Rain = 0
KTA1 171909Z 03013KT 16/02 A3014 RMK A01 T01550019  RH  040%=      5-min Rain = 0
KTA1 171910Z 02013KT 16/02 A3014 RMK A01 T01560019  RH  040%=      5-min Rain = 0
KTA1 171911Z 01010KT 16/02 A3013 RMK A01 T01570019  RH  039%=      5-min Rain = 0
KTA1 171912Z 02015KT 16/02 A3013 RMK A01 T01570020  RH  040%=      5-min Rain = 0
KTA1 171913Z 02013KT 16/02 A3014 RMK A01 T01580020  RH  039%=      5-min Rain = 0
KTA1 171914Z 01011KT 16/02 A3014 RMK A01 T01560018  RH  039%=      5-min Rain = 0
KTA1 171915Z 34010KT 16/02 A3013 RMK A01 T01550020  RH  040%=      5-min Rain = 0
KTA1 171916Z 00010KT 16/02 A3013 RMK A01 T01560019  RH  039%=      5-min Rain = 0
KTA1 171917Z 01010KT 16/02 A3013 RMK A01 T01560019  RH  040%=      5-min Rain = 0
KTA1 171918Z 02010KT 16/02 A3013 RMK A01 T01580020  RH  039%=      5-min Rain = 0
KTA1 171919Z 02011KT 16/02 A3013 RMK A01 T01580019  RH  039%=      5-min Rain = 0
KTA1 171920Z 01012KT 16/02 A3013 RMK A01 T01600020  RH  039%=      5-min Rain = 0
KTA1 171921Z 02010KT 16/02 A3013 RMK A01 T01590019  RH  039%=      5-min Rain = 0
KTA1 171922Z 02008G13KT 16/02 A3013 RMK A01 T01570018  RH  039%=      5-min Rain = 0
KTA1 171923Z 01011KT 16/02 A3013 RMK A01 T01570020  RH  039%=      5-min Rain = 0
KTA1 171924Z 01009KT 16/02 A3013 RMK A01 T01570019  RH  039%=      5-min Rain = 0
KTA1 171925Z 00011KT 16/02 A3013 RMK A01 T01580021  RH  040%=      5-min Rain = 0
KTA1 171926Z 36013KT 16/02 A3013 RMK A01 T01600020  RH  039%=      5-min Rain = 0
KTA1 171927Z 36012KT 16/02 A3013 RMK A01 T01600019  RH  039%=      5-min Rain = 0
KTA1 171928Z 01011KT 16/02 A3013 RMK A01 T01590020  RH  039%=      5-min Rain = 0
KTA1 171929Z 03010KT 16/02 A3013 RMK A01 T01610021  RH  039%=      5-min Rain = 0
KTA1 171930Z 03006KT 16/02 A3013 RMK A01 T01610020  RH  038%=      5-min Rain = 0
KTA1 171931Z 02006KT 16/02 A3013 RMK A01 T01610020  RH  039%=      5-min Rain = 0
KTA1 171932Z 35008KT 16/02 A3013 RMK A01 T01610020  RH  039%=      5-min Rain = 0
KTA1 171933Z 01009KT 16/02 A3013 RMK A01 T01610020  RH  039%=      5-min Rain = 0
KTA1 171934Z 01009KT 16/02 A3012 RMK A01 T01600021  RH  039%=      5-min Rain = 0
KTA1 171935Z 35010KT 16/02 A3012 RMK A01 T01610022  RH  039%=      5-min Rain = 0
KTA1 171936Z 01011KT 16/02 A3012 RMK A01 T01610022  RH  039%=      5-min Rain = 0
KTA1 171937Z 01013KT 16/02 A3012 RMK A01 T01620020  RH  038%=      5-min Rain = 0
KTA1 171938Z 02012KT 16/02 A3012 RMK A01 T01610019  RH  038%=      5-min Rain = 0
KTA1 171939Z 01010KT 16/02 A3012 RMK A01 T01610019  RH  038%=      5-min Rain = 0
KTA1 171940Z 01007KT 16/02 A3012 RMK A01 T01590019  RH  039%=      5-min Rain = 0
KTA1 171941Z 01008KT 16/02 A3012 RMK A01 T01590020  RH  039%=      5-min Rain = 0
KTA1 171942Z 01010KT 16/02 A3012 RMK A01 T01600020  RH  039%=      5-min Rain = 0
KTA1 171943Z 00009KT 16/02 A3012 RMK A01 T01590020  RH  039%=      5-min Rain = 0
KTA1 171944Z 35010KT 16/03 A3012 RMK A01 T01620025  RH  040%=      5-min Rain = 0
KTA1 171945Z 35008KT 16/02 A3012 RMK A01 T01640024  RH  039%=      5-min Rain = 0
KTA1 171946Z 35009KT 16/02 A3012 RMK A01 T01630023  RH  039%=      5-min Rain = 0
KTA1 171947Z 01009G14KT 16/02 A3011 RMK A01 T01600021  RH  039%=      5-min Rain = 0
KTA1 171948Z 01012KT 16/02 A3011 RMK A01 T01590020  RH  039%=      5-min Rain = 0
KTA1 171949Z 00012KT 16/02 A3011 RMK A01 T01590019  RH  039%=      5-min Rain = 0
KTA1 171950Z 03009KT 16/02 A3011 RMK A01 T01600020  RH  039%=      5-min Rain = 0
KTA1 171951Z 02009KT 16/02 A3011 RMK A01 T01630022  RH  039%=      5-min Rain = 0
KTA1 171952Z 01010KT 16/02 A3011 RMK A01 T01630021  RH  038%=      5-min Rain = 0
KTA1 171953Z 36011KT 16/02 A3011 RMK A01 T01640022  RH  038%=      5-min Rain = 0
KTA1 171954Z 35012KT 16/02 A3011 RMK A01 T01630021  RH  038%=      5-min Rain = 0
KTA1 171955Z 00010KT 16/02 A3011 RMK A01 T01630021  RH  038%=      5-min Rain = 0
KTA1 171956Z 01010KT 16/02 A3011 RMK A01 T01640021  RH  038%=      5-min Rain = 0
KTA1 171957Z 01008KT 16/02 A3011 RMK A01 T01630021  RH  038%=      5-min Rain = 0
KTA1 171958Z 02014KT 16/02 A3011 RMK A01 T01630021  RH  038%=      5-min Rain = 0
KTA1 171959Z 02015KT 16/02 A3011 RMK A01 T01630020  RH  038%=      5-min Rain = 0
KTA1 172000Z 01012KT 16/02 A3011 RMK A01 T01630019  RH  038%=      5-min Rain = 0
KTA1 172001Z 02010KT 16/02 A3011 RMK A01 T01620019  RH  038%=      5-min Rain = 0
KTA1 172002Z 02012KT 16/02 A3011 RMK A01 T01610019  RH  038%=      5-min Rain = 0
KTA1 172003Z 02013KT 16/02 A3011 RMK A01 T01600020  RH  039%=      5-min Rain = 0
KTA1 172004Z 01012KT 16/02 A3011 RMK A01 T01610022  RH  039%=      5-min Rain = 0
KTA1 172005Z 01012KT 16/02 A3011 RMK A01 T01620021  RH  039%=      5-min Rain = 0
KTA1 172006Z 01011KT 16/02 A3011 RMK A01 T01610021  RH  039%=      5-min Rain = 0
KTA1 172007Z 36008KT 16/02 A3011 RMK A01 T01620021  RH  039%=      5-min Rain = 0
KTA1 172008Z 35010KT 16/02 A3011 RMK A01 T01620021  RH  039%=      5-min Rain = 0
KTA1 172009Z 02013KT 16/02 A3011 RMK A01 T01620021  RH  039%=      5-min Rain = 0
KTA1 172010Z 01013KT 16/02 A3011 RMK A01 T01640021  RH  038%=      5-min Rain = 0
KTA1 172011Z 01010KT 16/02 A3011 RMK A01 T01640021  RH  038%=      5-min Rain = 0
KTA1 172012Z 02012KT 16/02 A3011 RMK A01 T01630018  RH  038%=      5-min Rain = 0
KTA1 172013Z 01010KT 16/02 A3011 RMK A01 T01610019  RH  038%=      5-min Rain = 0
KTA1 172014Z 35010KT 16/02 A3011 RMK A01 T01610020  RH  039%=      5-min Rain = 0
KTA1 172015Z 36012KT 16/02 A301 RMK A01 T01620020  RH  038%=      5-min Rain = 0
KTA1 172016Z 00014KT 16/02 A301 RMK A01 T01620019  RH  038%=      5-min Rain = 0
KTA1 172017Z 02014KT 16/02 A301 RMK A01 T01630020  RH  038%=      5-min Rain = 0
KTA1 172018Z 02014KT 16/02 A301 RMK A01 T01630019  RH  038%=      5-min Rain = 0
KTA1 172019Z 03012KT 16/02 A301 RMK A01 T01620020  RH  038%=      5-min Rain = 0
KTA1 172020Z 03012KT 16/02 A3011 RMK A01 T01620021  RH  038%=      5-min Rain = 0
KTA1 172021Z 03011KT 16/02 A3011 RMK A01 T01630021  RH  038%=      5-min Rain = 0
KTA1 172022Z 04010KT 16/02 A3011 RMK A01 T01630021  RH  038%=      5-min Rain = 0
KTA1 172023Z 02010KT 16/02 A301 RMK A01 T01630021  RH  038%=      5-min Rain = 0
KTA1 172024Z 02012KT 16/02 A301 RMK A01 T01630022  RH  039%=      5-min Rain = 0
KTA1 172025Z 01010KT 16/02 A301 RMK A01 T01640022  RH  038%=      5-min Rain = 0
KTA1 172026Z 00008KT 16/02 A301 RMK A01 T01620021  RH  039%=      5-min Rain = 0
KTA1 172027Z 01007KT 16/02 A301 RMK A01 T01620022  RH  039%=      5-min Rain = 0
KTA1 172028Z 00012KT 16/02 A301 RMK A01 T01630024  RH  039%=      5-min Rain = 0
KTA1 172029Z 00012KT 17/02 A301 RMK A01 T01650022  RH  038%=      5-min Rain = 0
KTA1 172030Z 36011KT 16/02 A301 RMK A01 T01640021  RH  038%=      5-min Rain = 0
KTA1 172031Z 00011KT 16/02 A301 RMK A01 T01640022  RH  039%=      5-min Rain = 0
KTA1 172032Z 35011KT 17/02 A301 RMK A01 T01650022  RH  038%=      5-min Rain = 0
KTA1 172033Z 36011KT 17/02 A301 RMK A01 T01650023  RH  038%=      5-min Rain = 0
KTA1 172034Z 00013KT 17/02 A301 RMK A01 T01650023  RH  038%=      5-min Rain = 0
KTA1 172035Z 01012KT 17/02 A301 RMK A01 T01670023  RH  038%=      5-min Rain = 0
KTA1 172036Z 00010KT 17/02 A301 RMK A01 T01670023  RH  038%=      5-min Rain = 0
KTA1 172037Z 01010KT 17/02 A301 RMK A01 T01670022  RH  038%=      5-min Rain = 0
KTA1 172038Z 01009KT 17/02 A301 RMK A01 T01650022  RH  038%=      5-min Rain = 0
KTA1 172039Z 00012KT 17/02 A301 RMK A01 T01650023  RH  038%=      5-min Rain = 0
KTA1 172040Z 02013KT 17/02 A301 RMK A01 T01660021  RH  037%=      5-min Rain = 0
KTA1 172041Z 02009KT 17/02 A301 RMK A01 T01670021  RH  038%=      5-min Rain = 0
KTA1 172042Z 02011KT 17/02 A301 RMK A01 T01660021  RH  038%=      5-min Rain = 0
KTA1 172043Z 01009KT 17/02 A301 RMK A01 T01650021  RH  038%=      5-min Rain = 0
KTA1 172044Z 01010KT 17/02 A301 RMK A01 T01650022  RH  038%=      5-min Rain = 0
KTA1 172045Z 01012KT 17/02 A301 RMK A01 T01660023  RH  038%=      5-min Rain = 0
KTA1 172046Z 01010KT 17/02 A301 RMK A01 T01660021  RH  038%=      5-min Rain = 0
KTA1 172047Z 02011KT 17/02 A301 RMK A01 T01650022  RH  038%=      5-min Rain = 0
KTA1 172048Z 02009KT 17/02 A301 RMK A01 T01650022  RH  038%=      5-min Rain = 0
KTA1 172049Z 01010KT 16/02 A301 RMK A01 T01640023  RH  039%=      5-min Rain = 0
KTA1 172050Z 35010KT 17/02 A301 RMK A01 T01650024  RH  039%=      5-min Rain = 0
KTA1 172051Z 01010KT 17/02 A301 RMK A01 T01660024  RH  038%=      5-min Rain = 0
KTA1 172052Z 00009KT 17/02 A301 RMK A01 T01660023  RH  038%=      5-min Rain = 0
KTA1 172053Z 36010KT 17/02 A301 RMK A01 T01680024  RH  038%=      5-min Rain = 0
KTA1 172054Z 02011KT 17/02 A301 RMK A01 T01700024  RH  038%=      5-min Rain = 0
KTA1 172055Z 01012KT 17/02 A301 RMK A01 T01710022  RH  037%=      5-min Rain = 0
KTA1 172056Z 02010KT 17/02 A301 RMK A01 T01680020  RH  037%=      5-min Rain = 0
KTA1 172057Z 02013G18KT 17/02 A301 RMK A01 T01660021  RH  038%=      5-min Rain = 0
KTA1 172058Z 01014KT 17/02 A301 RMK A01 T01670021  RH  037%=      5-min Rain = 0
KTA1 172059Z 02013KT 17/02 A301 RMK A01 T01660020  RH  037%=      5-min Rain = 0
KTA1 172100Z 01011KT 17/02 A301 RMK A01 T01650020  RH  038%=      5-min Rain = 0
KTA1 172101Z 03010KT 17/02 A301 RMK A01 T01650021  RH  038%=      5-min Rain = 0
KTA1 172102Z 02009KT 17/02 A301 RMK A01 T01660022  RH  038%=      5-min Rain = 0
KTA1 172103Z 02011KT 17/02 A301 RMK A01 T01660022  RH  038%=      5-min Rain = 0
KTA1 172104Z 02012KT 17/02 A301 RMK A01 T01660022  RH  038%=      5-min Rain = 0
KTA1 172105Z 01010KT 17/02 A301 RMK A01 T01660022  RH  038%=      5-min Rain = 0
KTA1 172106Z 00012KT 17/02 A301 RMK A01 T01660023  RH  038%=      5-min Rain = 0
KTA1 172107Z 00013KT 17/02 A301 RMK A01 T01660022  RH  038%=      5-min Rain = 0
KTA1 172108Z 00011KT 17/02 A301 RMK A01 T01660021  RH  038%=      5-min Rain = 0
KTA1 172109Z 36011KT 17/02 A301 RMK A01 T01660021  RH  038%=      5-min Rain = 0
KTA1 172110Z 00011KT 17/02 A301 RMK A01 T01670021  RH  037%=      5-min Rain = 0
KTA1 172111Z 36010KT 17/02 A301 RMK A01 T01660020  RH  037%=      5-min Rain = 0
KTA1 172112Z 00011KT 16/02 A301 RMK A01 T01640021  RH  038%=      5-min Rain = 0
KTA1 172113Z 36008KT 16/02 A301 RMK A01 T01640021  RH  038%=      5-min Rain = 0
KTA1 172114Z 00010KT 16/02 A301 RMK A01 T01640023  RH  039%=      5-min Rain = 0
KTA1 172115Z 01011KT 17/02 A301 RMK A01 T01650023  RH  039%=      5-min Rain = 0
KTA1 172116Z 36010KT 17/02 A301 RMK A01 T01650024  RH  039%=      5-min Rain = 0
KTA1 172117Z 35012KT 17/02 A301 RMK A01 T01660024  RH  039%=      5-min Rain = 0
KTA1 172118Z 34010KT 17/02 A301 RMK A01 T01660023  RH  038%=      5-min Rain = 0
KTA1 172119Z 35009KT 17/02 A301 RMK A01 T01660024  RH  039%=      5-min Rain = 0
KTA1 172120Z 36011KT 17/03 A301 RMK A01 T01670025  RH  039%=      5-min Rain = 0
KTA1 172121Z 35011KT 17/02 A301 RMK A01 T01680024  RH  038%=      5-min Rain = 0
KTA1 172122Z 35012KT 17/02 A301 RMK A01 T01700024  RH  038%=      5-min Rain = 0
KTA1 172123Z 36012KT 17/02 A301 RMK A01 T01700023  RH  037%=      5-min Rain = 0
KTA1 172124Z 01010KT 17/02 A301 RMK A01 T01690023  RH  037%=      5-min Rain = 0
KTA1 172125Z 36009KT 17/02 A301 RMK A01 T01680023  RH  038%=      5-min Rain = 0
KTA1 172126Z 36010KT 17/02 A3009 RMK A01 T01670024  RH  038%=      5-min Rain = 0
KTA1 172127Z 00009KT 17/02 A3009 RMK A01 T01680024  RH  038%=      5-min Rain = 0
KTA1 172128Z 02008KT 17/02 A3009 RMK A01 T01690024  RH  038%=      5-min Rain = 0
KTA1 172129Z 01011KT 17/02 A3009 RMK A01 T01700024  RH  038%=      5-min Rain = 0
KTA1 172130Z 01011KT 17/02 A3009 RMK A01 T01700024  RH  037%=      5-min Rain = 0
KTA1 172131Z 01009KT 17/02 A3009 RMK A01 T01700023  RH  037%=      5-min Rain = 0
KTA1 172132Z 02013KT 17/02 A3009 RMK A01 T01700023  RH  037%=      5-min Rain = 0
KTA1 172133Z 02012KT 17/02 A3009 RMK A01 T01700021  RH  037%=      5-min Rain = 0
KTA1 172134Z 02010KT 17/02 A3009 RMK A01 T01690022  RH  037%=      5-min Rain = 0
KTA1 172135Z 02009KT 17/02 A3009 RMK A01 T01690022  RH  037%=      5-min Rain = 0
KTA1 172136Z 01008KT 17/02 A3009 RMK A01 T01670021  RH  037%=      5-min Rain = 0
KTA1 172137Z 01008KT 17/02 A3009 RMK A01 T01670022  RH  038%=      5-min Rain = 0
KTA1 172138Z 02008KT 17/02 A3009 RMK A01 T01670022  RH  038%=      5-min Rain = 0
KTA1 172139Z 36009KT 17/02 A3009 RMK A01 T01690023  RH  038%=      5-min Rain = 0
KTA1 172140Z 01009KT 17/03 A3009 RMK A01 T01700025  RH  038%=      5-min Rain = 0
KTA1 172141Z 01009KT 17/03 A3009 RMK A01 T01720025  RH  037%=      5-min Rain = 0
KTA1 172142Z 02008KT 17/02 A3009 RMK A01 T01720024  RH  037%=      5-min Rain = 0
KTA1 172143Z 02012KT 17/02 A301 RMK A01 T01720023  RH  037%=      5-min Rain = 0
KTA1 172144Z 02012KT 17/02 A301 RMK A01 T01700021  RH  037%=      5-min Rain = 0
KTA1 172145Z 01012KT 17/02 A301 RMK A01 T01690021  RH  037%=      5-min Rain = 0
KTA1 172146Z 01012KT 17/02 A301 RMK A01 T01690021  RH  037%=      5-min Rain = 0
KTA1 172147Z 02010KT 17/02 A301 RMK A01 T01670020  RH  037%=      5-min Rain = 0
KTA1 172148Z 01011KT 17/02 A301 RMK A01 T01670021  RH  037%=      5-min Rain = 0
KTA1 172149Z 36011KT 17/02 A301 RMK A01 T01670022  RH  038%=      5-min Rain = 0
KTA1 172150Z 01012KT 17/02 A301 RMK A01 T01680022  RH  038%=      5-min Rain = 0
KTA1 172151Z 01011KT 17/02 A301 RMK A01 T01680021  RH  037%=      5-min Rain = 0
KTA1 172152Z 01008KT 17/02 A301 RMK A01 T01680021  RH  037%=      5-min Rain = 0
KTA1 172153Z 01010KT 17/02 A301 RMK A01 T01670021  RH  037%=      5-min Rain = 0
KTA1 172154Z 02010KT 17/02 A301 RMK A01 T01670021  RH  037%=      5-min Rain = 0
KTA1 172155Z 02010KT 17/02 A301 RMK A01 T01670021  RH  037%=      5-min Rain = 0
KTA1 172156Z 02011KT 17/02 A301 RMK A01 T01660021  RH  038%=      5-min Rain = 0
KTA1 172157Z 02013KT 17/02 A3009 RMK A01 T01650021  RH  038%=      5-min Rain = 0
KTA1 172158Z 02013KT 17/02 A301 RMK A01 T01650021  RH  038%=      5-min Rain = 0
KTA1 172159Z 02013KT 17/02 A301 RMK A01 T01650020  RH  038%=      5-min Rain = 0
KTA1 172200Z 02012KT 16/02 A301 RMK A01 T01630020  RH  038%=      5-min Rain = 0
KTA1 172201Z 01011KT 16/02 A301 RMK A01 T01630020  RH  038%=      5-min Rain = 0
KTA1 172202Z 02009KT 16/02 A301 RMK A01 T01630021  RH  038%=      5-min Rain = 0
KTA1 172203Z 02011KT 16/02 A301 RMK A01 T01640022  RH  038%=      5-min Rain = 0
KTA1 172204Z 00012KT 17/02 A301 RMK A01 T01650022  RH  038%=      5-min Rain = 0
KTA1 172205Z 00011KT 16/02 A301 RMK A01 T01640021  RH  038%=      5-min Rain = 0
KTA1 172206Z 01010KT 16/02 A301 RMK A01 T01640021  RH  038%=      5-min Rain = 0
KTA1 172207Z 01010KT 16/02 A301 RMK A01 T01640021  RH  038%=      5-min Rain = 0
KTA1 172208Z 01009KT 16/02 A301 RMK A01 T01640021  RH  038%=      5-min Rain = 0
KTA1 172209Z 01008KT 16/02 A301 RMK A01 T01630021  RH  038%=      5-min Rain = 0
KTA1 172210Z 00007KT 16/02 A301 RMK A01 T01630022  RH  039%=      5-min Rain = 0
KTA1 172211Z 02006KT 16/02 A301 RMK A01 T01640023  RH  039%=      5-min Rain = 0
KTA1 172212Z 03006KT 16/02 A301 RMK A01 T01640024  RH  039%=      5-min Rain = 0
KTA1 172213Z 02007KT 17/02 A301 RMK A01 T01650023  RH  039%=      5-min Rain = 0
KTA1 172214Z 02007KT 16/02 A301 RMK A01 T01640022  RH  039%=      5-min Rain = 0
KTA1 172215Z 01006KT 16/02 A301 RMK A01 T01630023  RH  039%=      5-min Rain = 0
KTA1 172216Z 01008KT 16/02 A301 RMK A01 T01640023  RH  039%=      5-min Rain = 0
KTA1 172217Z 03008KT 16/02 A301 RMK A01 T01640021  RH  038%=      5-min Rain = 0
KTA1 172218Z 03007KT 16/02 A301 RMK A01 T01640021  RH  038%=      5-min Rain = 0
KTA1 172219Z 03009KT 16/02 A301 RMK A01 T01640022  RH  038%=      5-min Rain = 0
KTA1 172220Z 01010KT 16/02 A3009 RMK A01 T01640022  RH  038%=      5-min Rain = 0
KTA1 172221Z 01008KT 16/02 A3009 RMK A01 T01640021  RH  038%=      5-min Rain = 0
KTA1 172222Z 02007KT 16/02 A3009 RMK A01 T01630021  RH  038%=      5-min Rain = 0
KTA1 172223Z 02009KT 16/02 A3009 RMK A01 T01630021  RH  039%=      5-min Rain = 0
KTA1 172224Z 02008KT 16/02 A3009 RMK A01 T01620021  RH  039%=      5-min Rain = 0
KTA1 172225Z 02008KT 16/02 A3009 RMK A01 T01620021  RH  039%=      5-min Rain = 0
KTA1 172226Z 02009KT 16/02 A3009 RMK A01 T01610021  RH  039%=      5-min Rain = 0
KTA1 172227Z 02007KT 16/02 A3009 RMK A01 T01610021  RH  039%=      5-min Rain = 0
KTA1 172228Z 02007KT 16/02 A3009 RMK A01 T01610021  RH  039%=      5-min Rain = 0
KTA1 172229Z 02008KT 16/02 A3009 RMK A01 T01610021  RH  039%=      5-min Rain = 0
KTA1 172230Z 01006KT 16/02 A3009 RMK A01 T01610021  RH  039%=      5-min Rain = 0
KTA1 172231Z 01006KT 16/02 A3009 RMK A01 T01600021  RH  039%=      5-min Rain = 0
KTA1 172232Z 01005KT 16/02 A3009 RMK A01 T01600021  RH  039%=      5-min Rain = 0
KTA1 172233Z 02007KT 16/02 A3009 RMK A01 T01600022  RH  039%=      5-min Rain = 0
KTA1 172234Z 02008KT 16/02 A3009 RMK A01 T01600022  RH  039%=      5-min Rain = 0
KTA1 172235Z 02007KT 16/02 A3009 RMK A01 T01600022  RH  039%=      5-min Rain = 0
KTA1 172236Z 02007KT 16/02 A3009 RMK A01 T01600022  RH  039%=      5-min Rain = 0
KTA1 172237Z 02007KT 16/02 A3009 RMK A01 T01600022  RH  039%=      5-min Rain = 0
KTA1 172238Z 01007KT 16/02 A3009 RMK A01 T01600023  RH  040%=      5-min Rain = 0
KTA1 172239Z 02008KT 16/02 A3009 RMK A01 T01600022  RH  039%=      5-min Rain = 0
KTA1 172240Z 01007KT 16/02 A3009 RMK A01 T01590022  RH  040%=      5-min Rain = 0
KTA1 172241Z 02007KT 16/02 A3009 RMK A01 T01590022  RH  040%=      5-min Rain = 0
KTA1 172242Z 01006KT 16/02 A3009 RMK A01 T01590021  RH  039%=      5-min Rain = 0
KTA1 172243Z 01005KT 16/02 A3009 RMK A01 T01600023  RH  040%=      5-min Rain = 0
KTA1 172244Z 01005KT 16/02 A3009 RMK A01 T01600023  RH  040%=      5-min Rain = 0
KTA1 172245Z 36005KT 16/02 A3009 RMK A01 T01600023  RH  040%=      5-min Rain = 0
KTA1 172246Z 36005KT 16/02 A3009 RMK A01 T01610024  RH  040%=      5-min Rain = 0
KTA1 172247Z 35005KT 16/02 A3009 RMK A01 T01600024  RH  040%=      5-min Rain = 0
KTA1 172248Z 01004KT 16/02 A3009 RMK A01 T01610024  RH  040%=      5-min Rain = 0
KTA1 172249Z 00006KT 16/02 A3009 RMK A01 T01610024  RH  040%=      5-min Rain = 0
KTA1 172250Z 36006KT 16/02 A3009 RMK A01 T01600023  RH  040%=      5-min Rain = 0
KTA1 172251Z 00005KT 16/02 A3009 RMK A01 T01600023  RH  040%=      5-min Rain = 0
KTA1 172252Z 01005KT 16/02 A3009 RMK A01 T01590023  RH  040%=      5-min Rain = 0
KTA1 172253Z 01006KT 16/02 A3009 RMK A01 T01590023  RH  040%=      5-min Rain = 0
KTA1 172254Z 01006KT 16/02 A3009 RMK A01 T01590023  RH  040%=      5-min Rain = 0
KTA1 172255Z 01005KT 16/02 A3009 RMK A01 T01580023  RH  040%=      5-min Rain = 0
KTA1 172256Z 00005KT 16/02 A3009 RMK A01 T01580023  RH  040%=      5-min Rain = 0
KTA1 172257Z 36004KT 16/02 A301 RMK A01 T01570024  RH  041%=      5-min Rain = 0
KTA1 172258Z 00004KT 16/02 A301 RMK A01 T01570024  RH  041%=      5-min Rain = 0
KTA1 172259Z 01004KT 16/03 A301 RMK A01 T01570025  RH  041%=      5-min Rain = 0
KTA1 172300Z 00004KT 16/03 A301 RMK A01 T01560025  RH  041%=      5-min Rain = 0
KTA1 172301Z 01004KT 16/02 A301 RMK A01 T01560024  RH  041%=      5-min Rain = 0
KTA1 172302Z 01004KT 16/02 A301 RMK A01 T01560024  RH  041%=      5-min Rain = 0
KTA1 172303Z 00004KT 16/02 A3009 RMK A01 T01560024  RH  041%=      5-min Rain = 0
KTA1 172304Z 00003KT 16/02 A3009 RMK A01 T01550024  RH  041%=      5-min Rain = 0
KTA1 172305Z 00003KT 16/02 A3009 RMK A01 T01550024  RH  041%=      5-min Rain = 0
KTA1 172306Z 01004KT 16/02 A3009 RMK A01 T01550024  RH  041%=      5-min Rain = 0
KTA1 172307Z 01004KT 16/02 A3009 RMK A01 T01550023  RH  041%=      5-min Rain = 0
KTA1 172308Z 01004KT 15/02 A3009 RMK A01 T01540023  RH  041%=      5-min Rain = 0
KTA1 172309Z 01003KT 15/02 A3009 RMK A01 T01540024  RH  041%=      5-min Rain = 0
KTA1 172310Z 01003KT 15/02 A3009 RMK A01 T01540024  RH  042%=      5-min Rain = 0
KTA1 172311Z 01004KT 15/02 A3009 RMK A01 T01530024  RH  042%=      5-min Rain = 0
KTA1 172312Z 00003KT 15/02 A3009 RMK A01 T01530024  RH  042%=      5-min Rain = 0
KTA1 172313Z 00003KT 15/03 A3009 RMK A01 T01530025  RH  042%=      5-min Rain = 0
KTA1 172314Z 01003KT 15/03 A3009 RMK A01 T01530025  RH  042%=      5-min Rain = 0
KTA1 172315Z 01003KT 15/03 A3009 RMK A01 T01530025  RH  042%=      5-min Rain = 0
KTA1 172316Z 01003KT 15/03 A3009 RMK A01 T01530025  RH  042%=      5-min Rain = 0
KTA1 172317Z 01003KT 15/03 A3009 RMK A01 T01530025  RH  042%=      5-min Rain = 0
KTA1 172318Z 01003KT 15/03 A3009 RMK A01 T01530025  RH  042%=      5-min Rain = 0
KTA1 172319Z 00003KT 15/03 A3009 RMK A01 T01530026  RH  042%=      5-min Rain = 0
KTA1 172320Z 00002KT 15/03 A3009 RMK A01 T01530026  RH  043%=      5-min Rain = 0
KTA1 172321Z 01002KT 15/03 A3009 RMK A01 T01530027  RH  043%=      5-min Rain = 0
KTA1 172322Z 01003KT 15/03 A3009 RMK A01 T01530028  RH  043%=      5-min Rain = 0
KTA1 172323Z 01002KT 15/03 A3009 RMK A01 T01520027  RH  043%=      5-min Rain = 0
KTA1 172324Z 01003KT 15/03 A3009 RMK A01 T01520027  RH  043%=      5-min Rain = 0
KTA1 172325Z 01003KT 15/03 A3009 RMK A01 T01510027  RH  043%=      5-min Rain = 0
KTA1 172326Z 01003KT 15/03 A3009 RMK A01 T01510026  RH  043%=      5-min Rain = 0
KTA1 172327Z 01003KT 15/03 A301 RMK A01 T01500026  RH  043%=      5-min Rain = 0
KTA1 172328Z 01003KT 15/03 A301 RMK A01 T01500026  RH  043%=      5-min Rain = 0
KTA1 172329Z 01003KT 15/03 A301 RMK A01 T01490027  RH  044%=      5-min Rain = 0
KTA1 172330Z 01002KT 15/03 A301 RMK A01 T01490027  RH  044%=      5-min Rain = 0
KTA1 172331Z 01003KT 15/03 A301 RMK A01 T01480026  RH  044%=      5-min Rain = 0
KTA1 172332Z 01003KT 15/03 A301 RMK A01 T01470026  RH  044%=      5-min Rain = 0
KTA1 172333Z 01003KT 15/03 A301 RMK A01 T01470026  RH  044%=      5-min Rain = 0
KTA1 172334Z 01003KT 15/03 A301 RMK A01 T01460026  RH  044%=      5-min Rain = 0
KTA1 172335Z 01003KT 15/03 A301 RMK A01 T01450026  RH  045%=      5-min Rain = 0
KTA1 172336Z 01003KT 14/03 A301 RMK A01 T01440026  RH  045%=      5-min Rain = 0
KTA1 172337Z 01003KT 14/03 A301 RMK A01 T01430026  RH  045%=      5-min Rain = 0
KTA1 172338Z 01003KT 14/03 A301 RMK A01 T01430026  RH  045%=      5-min Rain = 0
KTA1 172339Z 01003KT 14/03 A301 RMK A01 T01420026  RH  045%=      5-min Rain = 0
KTA1 172340Z 01003KT 14/03 A301 RMK A01 T01410026  RH  046%=      5-min Rain = 0
KTA1 172341Z 01004KT 14/03 A3009 RMK A01 T01410026  RH  046%=      5-min Rain = 0
KTA1 172342Z 01004KT 14/03 A3009 RMK A01 T01400026  RH  046%=      5-min Rain = 0
KTA1 172343Z 01004KT 14/03 A3009 RMK A01 T01400026  RH  046%=      5-min Rain = 0
KTA1 172344Z 01005KT 14/03 A301 RMK A01 T01390026  RH  047%=      5-min Rain = 0
KTA1 172345Z 01005KT 14/03 A301 RMK A01 T01380027  RH  047%=      5-min Rain = 0
KTA1 172346Z 02004KT 14/03 A301 RMK A01 T01370027  RH  048%=      5-min Rain = 0
KTA1 172347Z 02004KT 14/03 A301 RMK A01 T01360027  RH  048%=      5-min Rain = 0
KTA1 172348Z 02004KT 14/03 A301 RMK A01 T01350026  RH  048%=      5-min Rain = 0
KTA1 172349Z 02004KT 13/03 A301 RMK A01 T01340026  RH  048%=      5-min Rain = 0
KTA1 172350Z 02004KT 13/03 A301 RMK A01 T01340027  RH  048%=      5-min Rain = 0
KTA1 172351Z 02004KT 13/03 A301 RMK A01 T01330027  RH  049%=      5-min Rain = 0
KTA1 172352Z 02004KT 13/03 A301 RMK A01 T01320027  RH  049%=      5-min Rain = 0
KTA1 172353Z 02004KT 13/03 A301 RMK A01 T01320027  RH  049%=      5-min Rain = 0
KTA1 172354Z 02004KT 13/03 A301 RMK A01 T01310027  RH  049%=      5-min Rain = 0
KTA1 172355Z 02004KT 13/03 A301 RMK A01 T01310027  RH  049%=      5-min Rain = 0
KTA1 172356Z 02004KT 13/03 A301 RMK A01 T01300026  RH  049%=      5-min Rain = 0
KTA1 172357Z 02004KT 13/03 A301 RMK A01 T01290025  RH  049%=      5-min Rain = 0
KTA1 172358Z 01003KT 13/03 A301 RMK A01 T01280026  RH  050%=      5-min Rain = 0
KTA1 172359Z 00002KT 13/03 A301 RMK A01 T01270026  RH  050%=      5-min Rain = 0
KTA1 180000Z 36002KT 13/03 A301 RMK A01 T01260026  RH  051%=      5-min Rain = 0
KTA1 180001Z 00003KT 13/03 A301 RMK A01 T01250026  RH  051%=      5-min Rain = 0
KTA1 180002Z 01003KT 13/03 A301 RMK A01 T01250026  RH  051%=      5-min Rain = 0
KTA1 180003Z 01003KT 13/03 A301 RMK A01 T01250026  RH  051%=      5-min Rain = 0
KTA1 180004Z 01004KT 13/03 A301 RMK A01 T01260026  RH  050%=      5-min Rain = 0
KTA1 180005Z 01004KT 13/03 A301 RMK A01 T01260025  RH  050%=      5-min Rain = 0
KTA1 180006Z 01004KT 13/03 A301 RMK A01 T01260025  RH  050%=      5-min Rain = 0
KTA1 180007Z 01004KT 13/03 A301 RMK A01 T01260025  RH  050%=      5-min Rain = 0
KTA1 180008Z 01004KT 13/02 A301 RMK A01 T01260024  RH  050%=      5-min Rain = 0
KTA1 180009Z 01004KT 13/03 A301 RMK A01 T01260025  RH  050%=      5-min Rain = 0
KTA1 180010Z 01004KT 13/02 A301 RMK A01 T01260024  RH  050%=      5-min Rain = 0
KTA1 180011Z 01005KT 13/02 A301 RMK A01 T01250024  RH  050%=      5-min Rain = 0
KTA1 180012Z 01005KT 13/02 A301 RMK A01 T01250024  RH  050%=      5-min Rain = 0
KTA1 180013Z 01005KT 13/02 A301 RMK A01 T01250024  RH  050%=      5-min Rain = 0
KTA1 180014Z 01005KT 13/02 A301 RMK A01 T01250024  RH  050%=      5-min Rain = 0
KTA1 180015Z 01005KT 12/02 A301 RMK A01 T01240024  RH  050%=      5-min Rain = 0
KTA1 180016Z 01005KT 12/02 A301 RMK A01 T01240024  RH  051%=      5-min Rain = 0
KTA1 180017Z 01005KT 12/02 A301 RMK A01 T01230024  RH  051%=      5-min Rain = 0
KTA1 180018Z 01005KT 12/02 A301 RMK A01 T01230024  RH  051%=      5-min Rain = 0
KTA1 180019Z 01005KT 12/02 A301 RMK A01 T01230024  RH  051%=      5-min Rain = 0
KTA1 180020Z 00006KT 12/02 A301 RMK A01 T01230024  RH  051%=      5-min Rain = 0
KTA1 180021Z 00006KT 12/03 A301 RMK A01 T01220025  RH  051%=      5-min Rain = 0
KTA1 180022Z 00006KT 12/02 A301 RMK A01 T01220024  RH  051%=      5-min Rain = 0
KTA1 180023Z 00006KT 12/03 A301 RMK A01 T01220025  RH  051%=      5-min Rain = 0
KTA1 180024Z 00006KT 12/02 A301 RMK A01 T01210024  RH  052%=      5-min Rain = 0
KTA1 180025Z 00006KT 12/02 A301 RMK A01 T01200024  RH  052%=      5-min Rain = 0
KTA1 180026Z 00006KT 12/02 A301 RMK A01 T01200024  RH  052%=      5-min Rain = 0
KTA1 180027Z 00006KT 12/02 A301 RMK A01 T01200024  RH  052%=      5-min Rain = 0
KTA1 180028Z 00005KT 12/02 A301 RMK A01 T01190024  RH  052%=      5-min Rain = 0
KTA1 180029Z 00005KT 12/02 A301 RMK A01 T01190024  RH  052%=      5-min Rain = 0
KTA1 180030Z 00005KT 12/02 A3011 RMK A01 T01180023  RH  052%=      5-min Rain = 0
KTA1 180031Z 00005KT 12/02 A3011 RMK A01 T01180023  RH  052%=      5-min Rain = 0
KTA1 180032Z 00005KT 12/02 A3011 RMK A01 T01180023  RH  052%=      5-min Rain = 0
KTA1 180033Z 01004KT 12/02 A3011 RMK A01 T01170023  RH  053%=      5-min Rain = 0
KTA1 180034Z 01005KT 12/02 A3011 RMK A01 T01170023  RH  053%=      5-min Rain = 0
KTA1 180035Z 01004KT 12/02 A3011 RMK A01 T01160023  RH  053%=      5-min Rain = 0
KTA1 180036Z 01004KT 12/02 A3011 RMK A01 T01160023  RH  053%=      5-min Rain = 0
KTA1 180037Z 01004KT 12/02 A3011 RMK A01 T01150023  RH  053%=      5-min Rain = 0
KTA1 180038Z 01004KT 12/02 A3011 RMK A01 T01150022  RH  053%=      5-min Rain = 0
KTA1 180039Z 01004KT 11/02 A3011 RMK A01 T01140022  RH  053%=      5-min Rain = 0
KTA1 180040Z 01003KT 11/02 A3011 RMK A01 T01140023  RH  053%=      5-min Rain = 0
KTA1 180041Z 01003KT 11/02 A3011 RMK A01 T01140023  RH  053%=      5-min Rain = 0
KTA1 180042Z 01003KT 11/02 A3011 RMK A01 T01140022  RH  053%=      5-min Rain = 0
KTA1 180043Z 01003KT 11/02 A3011 RMK A01 T01140022  RH  053%=      5-min Rain = 0
KTA1 180044Z 01003KT 12/02 A3011 RMK A01 T01150022  RH  053%=      5-min Rain = 0
KTA1 180045Z 01003KT 12/02 A3011 RMK A01 T01150022  RH  053%=      5-min Rain = 0
KTA1 180046Z 01003KT 12/02 A3011 RMK A01 T01150022  RH  053%=      5-min Rain = 0
KTA1 180047Z 01003KT 12/02 A3011 RMK A01 T01160022  RH  052%=      5-min Rain = 0
KTA1 180048Z 01003KT 12/02 A3011 RMK A01 T01170022  RH  052%=      5-min Rain = 0
KTA1 180049Z 01003KT 12/02 A3011 RMK A01 T01170022  RH  052%=      5-min Rain = 0
KTA1 180050Z 01003KT 12/02 A3011 RMK A01 T01170022  RH  052%=      5-min Rain = 0
KTA1 180051Z 01003KT 12/02 A3011 RMK A01 T01170022  RH  052%=      5-min Rain = 0
KTA1 180052Z 02004KT 12/02 A3011 RMK A01 T01170022  RH  052%=      5-min Rain = 0
KTA1 180053Z 02004KT 12/02 A3011 RMK A01 T01180022  RH  052%=      5-min Rain = 0
KTA1 180054Z 02004KT 12/02 A3011 RMK A01 T01180022  RH  052%=      5-min Rain = 0
KTA1 180055Z 02004KT 12/02 A3011 RMK A01 T01170022  RH  052%=      5-min Rain = 0
KTA1 180056Z 02004KT 12/02 A3011 RMK A01 T01160022  RH  052%=      5-min Rain = 0
KTA1 180057Z 02004KT 12/02 A3011 RMK A01 T01150022  RH  053%=      5-min Rain = 0
KTA1 180058Z 02004KT 11/02 A3011 RMK A01 T01140022  RH  053%=      5-min Rain = 0
KTA1 180059Z 02004KT 11/02 A3011 RMK A01 T01140022  RH  053%=      5-min Rain = 0
KTA1 180100Z 02004KT 11/02 A3011 RMK A01 T01130023  RH  054%=      5-min Rain = 0
KTA1 180101Z 02005KT 11/02 A3011 RMK A01 T01110022  RH  054%=      5-min Rain = 0
KTA1 180102Z 02005KT 11/02 A3011 RMK A01 T01090022  RH  055%=      5-min Rain = 0
KTA1 180103Z 02006KT 11/02 A3011 RMK A01 T01070021  RH  055%=      5-min Rain = 0
KTA1 180104Z 02006KT 11/02 A3011 RMK A01 T01070022  RH  055%=      5-min Rain = 0
KTA1 180105Z 03006KT 11/02 A3011 RMK A01 T01080022  RH  055%=      5-min Rain = 0
KTA1 180106Z 03007KT 11/02 A3011 RMK A01 T01090022  RH  055%=      5-min Rain = 0
KTA1 180107Z 03006KT 11/02 A3011 RMK A01 T01100022  RH  055%=      5-min Rain = 0
KTA1 180108Z 03006KT 11/02 A3011 RMK A01 T01110022  RH  054%=      5-min Rain = 0
KTA1 180109Z 03005KT 11/02 A3011 RMK A01 T01100022  RH  055%=      5-min Rain = 0
KTA1 180110Z 03005KT 11/02 A3011 RMK A01 T01080022  RH  055%=      5-min Rain = 0
KTA1 180111Z 04005KT 11/02 A3011 RMK A01 T01060022  RH  056%=      5-min Rain = 0
KTA1 180112Z 04005KT 10/02 A3011 RMK A01 T01040022  RH  057%=      5-min Rain = 0
KTA1 180113Z 04005KT 10/02 A3011 RMK A01 T01030022  RH  057%=      5-min Rain = 0
KTA1 180114Z 04005KT 10/02 A3011 RMK A01 T01020022  RH  057%=      5-min Rain = 0
KTA1 180115Z 04004KT 10/02 A3011 RMK A01 T01020022  RH  057%=      5-min Rain = 0
KTA1 180116Z 04003KT 10/02 A3012 RMK A01 T01020022  RH  057%=      5-min Rain = 0
KTA1 180117Z 05002KT 10/02 A3012 RMK A01 T01020022  RH  058%=      5-min Rain = 0
KTA1 180118Z 04002KT 10/02 A3012 RMK A01 T01020023  RH  058%=      5-min Rain = 0
KTA1 180119Z 04001KT 10/02 A3012 RMK A01 T01010023  RH  058%=      5-min Rain = 0
KTA1 180120Z 00000KT 10/02 A3012 RMK A01 T01010022  RH  058%=      5-min Rain = 0
KTA1 180121Z 00000KT 10/02 A3012 RMK A01 T01010023  RH  058%=      5-min Rain = 0
KTA1 180122Z 00000KT 10/02 A3012 RMK A01 T01010023  RH  059%=      5-min Rain = 0
KTA1 180123Z 00000KT 10/02 A3012 RMK A01 T00990024  RH  059%=      5-min Rain = 0
KTA1 180124Z 00000KT 10/02 A3012 RMK A01 T00980023  RH  060%=      5-min Rain = 0
KTA1 180125Z 00000KT 10/02 A3012 RMK A01 T00970023  RH  060%=      5-min Rain = 0
KTA1 180126Z 00000KT 10/02 A3012 RMK A01 T00960023  RH  060%=      5-min Rain = 0
KTA1 180127Z 00000KT 10/02 A3013 RMK A01 T00960023  RH  061%=      5-min Rain = 0
KTA1 180128Z 00000KT 10/02 A3012 RMK A01 T00960024  RH  061%=      5-min Rain = 0
KTA1 180129Z 00000KT 10/02 A3012 RMK A01 T00960023  RH  061%=      5-min Rain = 0
KTA1 180130Z 00000KT 10/02 A3012 RMK A01 T00960023  RH  060%=      5-min Rain = 0
KTA1 180131Z 00000KT 10/02 A3012 RMK A01 T00960022  RH  060%=      5-min Rain = 0
KTA1 180132Z 00000KT 10/02 A3012 RMK A01 T00970023  RH  060%=      5-min Rain = 0
KTA1 180133Z 00000KT 10/02 A3013 RMK A01 T00970023  RH  060%=      5-min Rain = 0
KTA1 180134Z 00000KT 10/02 A3013 RMK A01 T00980023  RH  060%=      5-min Rain = 0
KTA1 180135Z 00000KT 10/02 A3013 RMK A01 T00970023  RH  060%=      5-min Rain = 0
KTA1 180136Z 00000KT 10/02 A3012 RMK A01 T00980022  RH  059%=      5-min Rain = 0
KTA1 180137Z 00000KT 10/02 A3012 RMK A01 T00990023  RH  059%=      5-min Rain = 0
KTA1 180138Z 00000KT 10/02 A3012 RMK A01 T00980022  RH  059%=      5-min Rain = 0
KTA1 180139Z 00000KT 10/02 A3012 RMK A01 T00970022  RH  059%=      5-min Rain = 0
KTA1 180140Z 00000KT 10/02 A3012 RMK A01 T00960022  RH  060%=      5-min Rain = 0
KTA1 180141Z 00000KT 10/02 A3012 RMK A01 T00950022  RH  060%=      5-min Rain = 0
KTA1 180142Z 00000KT 10/02 A3012 RMK A01 T00950022  RH  060%=      5-min Rain = 0
KTA1 180143Z 00000KT 09/02 A3012 RMK A01 T00940022  RH  061%=      5-min Rain = 0
KTA1 180144Z 00000KT 09/02 A3012 RMK A01 T00940022  RH  061%=      5-min Rain = 0
KTA1 180145Z 00000KT 09/02 A3012 RMK A01 T00940023  RH  061%=      5-min Rain = 0
KTA1 180146Z 00000KT 09/02 A3012 RMK A01 T00930022  RH  061%=      5-min Rain = 0
KTA1 180147Z 00000KT 09/02 A3012 RMK A01 T00920023  RH  062%=      5-min Rain = 0
KTA1 180148Z 00000KT 09/02 A3012 RMK A01 T00920022  RH  062%=      5-min Rain = 0
KTA1 180149Z 00000KT 09/02 A3012 RMK A01 T00910022  RH  062%=      5-min Rain = 0
KTA1 180150Z 00000KT 09/02 A3012 RMK A01 T00920023  RH  062%=      5-min Rain = 0
KTA1 180151Z 00000KT 09/02 A3012 RMK A01 T00920022  RH  062%=      5-min Rain = 0
KTA1 180152Z 00000KT 09/02 A3012 RMK A01 T00940023  RH  061%=      5-min Rain = 0
KTA1 180153Z 00000KT 09/02 A3012 RMK A01 T00940022  RH  061%=      5-min Rain = 0
KTA1 180154Z 00000KT 09/02 A3012 RMK A01 T00940021  RH  060%=      5-min Rain = 0
KTA1 180155Z 00000KT 09/02 A3012 RMK A01 T00940020  RH  060%=      5-min Rain = 0
KTA1 180156Z 00000KT 10/02 A3012 RMK A01 T00950021  RH  060%=      5-min Rain = 0
KTA1 180157Z 00000KT 10/02 A3012 RMK A01 T00960022  RH  060%=      5-min Rain = 0
KTA1 180158Z 00000KT 10/02 A3012 RMK A01 T00980022  RH  059%=      5-min Rain = 0

Page generated in 0.0173 seconds.